sensor_id;sensor_type;location;lat;lon;timestamp;P1;durP1;ratioP1;P2;durP2;ratioP2
10511;SDS011;5304;48.604;2.096;2023-07-28T04:23:26;1.77;;;1.40;;
10511;SDS011;5304;48.604;2.096;2023-07-28T04:26:10;2.67;;;1.30;;
10511;SDS011;5304;48.604;2.096;2023-07-28T04:28:54;2.07;;;1.40;;
10511;SDS011;5304;48.604;2.096;2023-07-28T04:31:38;2.40;;;1.47;;
10511;SDS011;5304;48.604;2.096;2023-07-28T04:34:22;4.90;;;1.70;;
10511;SDS011;5304;48.604;2.096;2023-07-28T04:37:06;3.50;;;1.50;;
10511;SDS011;5304;48.604;2.096;2023-07-28T04:39:51;1.77;;;1.30;;
10511;SDS011;5304;48.604;2.096;2023-07-28T04:42:35;4.27;;;1.70;;
10511;SDS011;5304;48.604;2.096;2023-07-28T04:45:21;2.53;;;1.40;;
10511;SDS011;5304;48.604;2.096;2023-07-28T04:48:05;2.50;;;1.77;;
10511;SDS011;5304;48.604;2.096;2023-07-28T04:50:50;2.00;;;1.60;;
10511;SDS011;5304;48.604;2.096;2023-07-28T04:53:34;3.10;;;1.90;;
10511;SDS011;5304;48.604;2.096;2023-07-28T04:56:19;2.70;;;1.90;;
10511;SDS011;5304;48.604;2.096;2023-07-28T04:59:03;2.20;;;1.87;;
10511;SDS011;5304;48.604;2.096;2023-07-28T05:01:48;3.63;;;1.93;;
10511;SDS011;5304;48.604;2.096;2023-07-28T05:04:32;2.50;;;1.93;;
10511;SDS011;5304;48.604;2.096;2023-07-28T05:07:16;2.70;;;1.83;;
10511;SDS011;5304;48.604;2.096;2023-07-28T05:10:00;4.57;;;2.30;;
10511;SDS011;5304;48.604;2.096;2023-07-28T05:12:45;2.13;;;1.93;;
10511;SDS011;5304;48.604;2.096;2023-07-28T05:15:29;5.77;;;2.07;;
10511;SDS011;5304;48.604;2.096;2023-07-28T05:18:13;2.20;;;2.00;;
10511;SDS011;5304;48.604;2.096;2023-07-28T05:20:58;4.07;;;2.60;;
10511;SDS011;5304;48.604;2.096;2023-07-28T05:23:42;2.90;;;2.20;;
10511;SDS011;5304;48.604;2.096;2023-07-28T05:26:26;3.23;;;2.10;;
10511;SDS011;5304;48.604;2.096;2023-07-28T05:29:10;4.03;;;2.20;;
10511;SDS011;5304;48.604;2.096;2023-07-28T05:31:55;3.27;;;2.30;;
10511;SDS011;5304;48.604;2.096;2023-07-28T05:34:42;3.03;;;2.20;;
10511;SDS011;5304;48.604;2.096;2023-07-28T05:37:27;2.40;;;2.13;;
10511;SDS011;5304;48.604;2.096;2023-07-28T05:40:11;2.80;;;2.60;;
10511;SDS011;5304;48.604;2.096;2023-07-28T05:42:56;4.67;;;2.20;;
10511;SDS011;5304;48.604;2.096;2023-07-28T05:45:45;6.07;;;2.33;;
10511;SDS011;5304;48.604;2.096;2023-07-28T05:48:30;3.50;;;2.37;;
10511;SDS011;5304;48.604;2.096;2023-07-28T05:51:15;2.50;;;2.20;;
10511;SDS011;5304;48.604;2.096;2023-07-28T05:54:00;3.40;;;2.23;;
10511;SDS011;5304;48.604;2.096;2023-07-28T05:56:44;4.60;;;2.37;;
10511;SDS011;5304;48.604;2.096;2023-07-28T05:59:28;2.77;;;2.03;;
10511;SDS011;5304;48.604;2.096;2023-07-28T06:02:13;2.27;;;2.00;;
10511;SDS011;5304;48.604;2.096;2023-07-28T06:04:57;3.27;;;2.03;;
10511;SDS011;5304;48.604;2.096;2023-07-28T06:07:41;2.90;;;2.10;;
10511;SDS011;5304;48.604;2.096;2023-07-28T06:10:25;2.50;;;2.17;;
10511;SDS011;5304;48.604;2.096;2023-07-28T06:13:10;3.30;;;1.90;;
10511;SDS011;5304;48.604;2.096;2023-07-28T06:15:54;1.83;;;1.73;;
10511;SDS011;5304;48.604;2.096;2023-07-28T06:18:39;2.10;;;1.90;;
10511;SDS011;5304;48.604;2.096;2023-07-28T06:21:23;4.07;;;1.90;;
10511;SDS011;5304;48.604;2.096;2023-07-28T06:24:08;6.47;;;1.90;;
10511;SDS011;5304;48.604;2.096;2023-07-28T06:26:52;2.70;;;2.00;;
10511;SDS011;5304;48.604;2.096;2023-07-28T06:29:36;2.20;;;2.00;;
10511;SDS011;5304;48.604;2.096;2023-07-28T06:32:20;3.93;;;1.90;;
10511;SDS011;5304;48.604;2.096;2023-07-28T06:35:07;3.97;;;2.00;;
10511;SDS011;5304;48.604;2.096;2023-07-28T06:37:53;2.93;;;2.00;;
10511;SDS011;5304;48.604;2.096;2023-07-28T06:40:37;2.80;;;1.83;;
10511;SDS011;5304;48.604;2.096;2023-07-28T06:43:21;2.00;;;1.60;;
10511;SDS011;5304;48.604;2.096;2023-07-28T06:46:05;3.53;;;1.70;;
10511;SDS011;5304;48.604;2.096;2023-07-28T06:48:50;2.77;;;1.60;;
10511;SDS011;5304;48.604;2.096;2023-07-28T06:51:34;2.60;;;1.83;;
10511;SDS011;5304;48.604;2.096;2023-07-28T06:54:18;2.87;;;1.47;;
10511;SDS011;5304;48.604;2.096;2023-07-28T06:57:02;1.97;;;1.47;;
10511;SDS011;5304;48.604;2.096;2023-07-28T06:59:48;4.50;;;1.37;;
10511;SDS011;5304;48.604;2.096;2023-07-28T07:02:33;1.53;;;1.40;;
10511;SDS011;5304;48.604;2.096;2023-07-28T07:05:17;1.73;;;1.20;;
10511;SDS011;5304;48.604;2.096;2023-07-28T07:08:02;1.30;;;1.20;;
10511;SDS011;5304;48.604;2.096;2023-07-28T07:10:47;2.97;;;1.30;;
10511;SDS011;5304;48.604;2.096;2023-07-28T07:13:32;2.20;;;1.10;;
10511;SDS011;5304;48.604;2.096;2023-07-28T07:16:17;1.33;;;1.10;;
10511;SDS011;5304;48.604;2.096;2023-07-28T07:19:01;1.63;;;0.97;;
10511;SDS011;5304;48.604;2.096;2023-07-28T07:21:46;1.40;;;1.00;;
10511;SDS011;5304;48.604;2.096;2023-07-28T07:24:31;1.07;;;0.80;;
10511;SDS011;5304;48.604;2.096;2023-07-28T07:27:16;1.77;;;1.03;;
10511;SDS011;5304;48.604;2.096;2023-07-28T07:30:00;1.63;;;0.90;;
10511;SDS011;5304;48.604;2.096;2023-07-28T07:32:45;0.95;;;0.75;;
10511;SDS011;5304;48.604;2.096;2023-07-28T07:35:29;1.27;;;0.80;;
10511;SDS011;5304;48.604;2.096;2023-07-28T07:38:13;2.60;;;1.00;;
10511;SDS011;5304;48.604;2.096;2023-07-28T07:40:57;1.43;;;0.87;;
10511;SDS011;5304;48.604;2.096;2023-07-28T07:43:42;0.63;;;0.63;;
10511;SDS011;5304;48.604;2.096;2023-07-28T07:46:26;1.88;;;0.90;;
10511;SDS011;5304;48.604;2.096;2023-07-28T07:49:10;1.00;;;0.90;;
10511;SDS011;5304;48.604;2.096;2023-07-28T07:51:54;1.00;;;0.90;;
10511;SDS011;5304;48.604;2.096;2023-07-28T07:54:38;1.05;;;0.80;;
10511;SDS011;5304;48.604;2.096;2023-07-28T07:57:23;3.60;;;1.05;;
10511;SDS011;5304;48.604;2.096;2023-07-28T08:00:07;2.22;;;1.00;;
10511;SDS011;5304;48.604;2.096;2023-07-28T08:02:52;1.70;;;0.77;;
10511;SDS011;5304;48.604;2.096;2023-07-28T08:05:36;1.10;;;0.80;;
10511;SDS011;5304;48.604;2.096;2023-07-28T08:08:21;2.03;;;0.97;;
10511;SDS011;5304;48.604;2.096;2023-07-28T08:11:05;1.90;;;0.93;;
10511;SDS011;5304;48.604;2.096;2023-07-28T08:13:51;2.85;;;1.02;;
10511;SDS011;5304;48.604;2.096;2023-07-28T08:16:35;0.93;;;0.90;;
10511;SDS011;5304;48.604;2.096;2023-07-28T08:19:20;1.52;;;1.25;;
10511;SDS011;5304;48.604;2.096;2023-07-28T08:22:04;1.13;;;1.13;;
10511;SDS011;5304;48.604;2.096;2023-07-28T08:24:48;1.38;;;1.10;;
10511;SDS011;5304;48.604;2.096;2023-07-28T08:27:32;1.20;;;1.10;;
10511;SDS011;5304;48.604;2.096;2023-07-28T08:30:17;1.55;;;1.30;;
10511;SDS011;5304;48.604;2.096;2023-07-28T08:33:02;4.00;;;1.50;;
10511;SDS011;5304;48.604;2.096;2023-07-28T08:35:47;1.42;;;1.20;;
10511;SDS011;5304;48.604;2.096;2023-07-28T08:38:31;1.45;;;1.20;;
10511;SDS011;5304;48.604;2.096;2023-07-28T08:41:15;2.42;;;1.25;;
10511;SDS011;5304;48.604;2.096;2023-07-28T08:44:00;3.55;;;1.60;;
10511;SDS011;5304;48.604;2.096;2023-07-28T08:46:46;2.63;;;1.25;;
10511;SDS011;5304;48.604;2.096;2023-07-28T08:49:30;1.50;;;1.40;;
10511;SDS011;5304;48.604;2.096;2023-07-28T08:52:16;1.30;;;1.20;;
10511;SDS011;5304;48.604;2.096;2023-07-28T08:55:01;1.80;;;1.38;;
10511;SDS011;5304;48.604;2.096;2023-07-28T08:57:46;3.53;;;1.20;;
10511;SDS011;5304;48.604;2.096;2023-07-28T09:00:31;1.98;;;1.23;;
10511;SDS011;5304;48.604;2.096;2023-07-28T09:03:16;2.55;;;1.30;;
10511;SDS011;5304;48.604;2.096;2023-07-28T09:06:01;1.40;;;1.30;;
10511;SDS011;5304;48.604;2.096;2023-07-28T09:08:46;1.40;;;1.30;;
10511;SDS011;5304;48.604;2.096;2023-07-28T09:11:30;2.45;;;1.33;;
10511;SDS011;5304;48.604;2.096;2023-07-28T09:14:15;1.90;;;1.40;;
10511;SDS011;5304;48.604;2.096;2023-07-28T09:17:07;2.45;;;1.40;;
10511;SDS011;5304;48.604;2.096;2023-07-28T09:19:56;2.83;;;1.30;;
10511;SDS011;5304;48.604;2.096;2023-07-28T09:22:41;1.77;;;1.65;;
10511;SDS011;5304;48.604;2.096;2023-07-28T09:25:29;3.45;;;1.40;;
10511;SDS011;5304;48.604;2.096;2023-07-28T09:28:16;1.30;;;1.20;;
10511;SDS011;5304;48.604;2.096;2023-07-28T09:31:01;2.65;;;1.40;;
10511;SDS011;5304;48.604;2.096;2023-07-28T09:33:48;1.45;;;1.33;;
10511;SDS011;5304;48.604;2.096;2023-07-28T09:36:32;3.28;;;1.30;;
10511;SDS011;5304;48.604;2.096;2023-07-28T09:39:17;1.50;;;1.40;;
10511;SDS011;5304;48.604;2.096;2023-07-28T09:42:02;1.55;;;1.45;;
10511;SDS011;5304;48.604;2.096;2023-07-28T09:44:47;1.77;;;1.67;;
10511;SDS011;5304;48.604;2.096;2023-07-28T09:47:33;1.67;;;1.58;;
10511;SDS011;5304;48.604;2.096;2023-07-28T09:50:21;1.80;;;1.70;;
10511;SDS011;5304;48.604;2.096;2023-07-28T09:53:08;1.73;;;1.63;;
10511;SDS011;5304;48.604;2.096;2023-07-28T09:55:54;1.63;;;1.52;;
10511;SDS011;5304;48.604;2.096;2023-07-28T09:58:44;2.00;;;1.90;;
10511;SDS011;5304;48.604;2.096;2023-07-28T10:01:35;1.67;;;1.55;;
10511;SDS011;5304;48.604;2.096;2023-07-28T10:04:20;1.95;;;1.60;;
10511;SDS011;5304;48.604;2.096;2023-07-28T10:07:05;1.70;;;1.60;;
10511;SDS011;5304;48.604;2.096;2023-07-28T10:09:50;1.60;;;1.50;;
10511;SDS011;5304;48.604;2.096;2023-07-28T10:12:41;1.77;;;1.67;;
10511;SDS011;5304;48.604;2.096;2023-07-28T10:15:31;2.08;;;1.80;;
10511;SDS011;5304;48.604;2.096;2023-07-28T10:18:19;4.25;;;1.92;;
10511;SDS011;5304;48.604;2.096;2023-07-28T10:21:05;1.95;;;1.85;;
10511;SDS011;5304;48.604;2.096;2023-07-28T10:23:55;2.00;;;1.80;;
10511;SDS011;5304;48.604;2.096;2023-07-28T10:26:40;1.90;;;1.80;;
10511;SDS011;5304;48.604;2.096;2023-07-28T10:29:25;1.98;;;1.48;;
10511;SDS011;5304;48.604;2.096;2023-07-28T10:32:09;1.52;;;1.42;;
10511;SDS011;5304;48.604;2.096;2023-07-28T10:35:21;1.40;;;1.30;;
10511;SDS011;5304;48.604;2.096;2023-07-28T10:41:14;2.85;;;1.48;;
10511;SDS011;5304;48.604;2.096;2023-07-28T10:44:00;2.70;;;1.60;;
10511;SDS011;5304;48.604;2.096;2023-07-28T10:46:45;3.40;;;1.50;;
10511;SDS011;5304;48.604;2.096;2023-07-28T10:49:31;1.63;;;1.52;;
10511;SDS011;5304;48.604;2.096;2023-07-28T10:52:17;1.58;;;1.48;;
10511;SDS011;5304;48.604;2.096;2023-07-28T10:55:01;1.40;;;1.30;;
10511;SDS011;5304;48.604;2.096;2023-07-28T10:57:46;1.70;;;1.60;;
10511;SDS011;5304;48.604;2.096;2023-07-28T11:00:31;2.13;;;1.50;;
10511;SDS011;5304;48.604;2.096;2023-07-28T11:03:15;3.08;;;1.33;;
10511;SDS011;5304;48.604;2.096;2023-07-28T11:05:59;1.58;;;1.48;;
10511;SDS011;5304;48.604;2.096;2023-07-28T11:08:43;1.63;;;1.52;;
10511;SDS011;5304;48.604;2.096;2023-07-28T11:11:28;2.15;;;1.50;;
10511;SDS011;5304;48.604;2.096;2023-07-28T11:14:14;1.75;;;1.65;;
10511;SDS011;5304;48.604;2.096;2023-07-28T11:16:59;2.65;;;1.60;;
10511;SDS011;5304;48.604;2.096;2023-07-28T11:19:44;3.72;;;1.92;;
10511;SDS011;5304;48.604;2.096;2023-07-28T11:22:28;2.03;;;1.92;;
10511;SDS011;5304;48.604;2.096;2023-07-28T11:25:12;2.10;;;1.90;;
10511;SDS011;5304;48.604;2.096;2023-07-28T11:27:57;2.40;;;1.67;;
10511;SDS011;5304;48.604;2.096;2023-07-28T11:30:44;1.50;;;1.40;;
10511;SDS011;5304;48.604;2.096;2023-07-28T11:33:31;1.70;;;1.60;;
10511;SDS011;5304;48.604;2.096;2023-07-28T11:36:21;2.38;;;1.50;;
10511;SDS011;5304;48.604;2.096;2023-07-28T11:39:14;1.45;;;1.35;;
10511;SDS011;5304;48.604;2.096;2023-07-28T11:42:00;1.00;;;1.00;;
10511;SDS011;5304;48.604;2.096;2023-07-28T11:44:46;1.20;;;1.10;;
10511;SDS011;5304;48.604;2.096;2023-07-28T11:47:30;0.95;;;0.93;;
10511;SDS011;5304;48.604;2.096;2023-07-28T11:50:21;1.02;;;0.93;;
10511;SDS011;5304;48.604;2.096;2023-07-28T11:53:10;1.15;;;1.00;;
10511;SDS011;5304;48.604;2.096;2023-07-28T11:55:55;0.70;;;0.70;;
10511;SDS011;5304;48.604;2.096;2023-07-28T11:58:39;0.80;;;0.80;;
10511;SDS011;5304;48.604;2.096;2023-07-28T12:01:24;0.70;;;0.70;;
10511;SDS011;5304;48.604;2.096;2023-07-28T12:04:24;1.17;;;0.65;;
10511;SDS011;5304;48.604;2.096;2023-07-28T12:07:11;1.00;;;0.75;;
10511;SDS011;5304;48.604;2.096;2023-07-28T12:10:02;1.60;;;0.77;;
10511;SDS011;5304;48.604;2.096;2023-07-28T12:12:50;0.75;;;0.70;;
10511;SDS011;5304;48.604;2.096;2023-07-28T12:15:34;3.50;;;0.90;;
10511;SDS011;5304;48.604;2.096;2023-07-28T12:18:27;1.02;;;0.75;;
10511;SDS011;5304;48.604;2.096;2023-07-28T12:21:14;0.70;;;0.70;;
10511;SDS011;5304;48.604;2.096;2023-07-28T12:23:58;0.85;;;0.80;;
10511;SDS011;5304;48.604;2.096;2023-07-28T12:26:42;1.75;;;0.77;;
10511;SDS011;5304;48.604;2.096;2023-07-28T12:29:26;0.98;;;0.80;;
10511;SDS011;5304;48.604;2.096;2023-07-28T12:32:11;1.75;;;0.85;;
10511;SDS011;5304;48.604;2.096;2023-07-28T12:34:55;1.05;;;0.80;;
10511;SDS011;5304;48.604;2.096;2023-07-28T12:37:39;0.98;;;0.90;;
10511;SDS011;5304;48.604;2.096;2023-07-28T12:40:23;0.80;;;0.80;;
10511;SDS011;5304;48.604;2.096;2023-07-28T12:43:07;1.00;;;1.00;;
10511;SDS011;5304;48.604;2.096;2023-07-28T12:45:52;0.88;;;0.88;;
10511;SDS011;5304;48.604;2.096;2023-07-28T12:48:39;1.08;;;0.80;;
10511;SDS011;5304;48.604;2.096;2023-07-28T12:51:24;1.38;;;0.90;;
10511;SDS011;5304;48.604;2.096;2023-07-28T12:54:09;1.10;;;1.00;;
10511;SDS011;5304;48.604;2.096;2023-07-28T12:56:56;2.50;;;1.00;;
10511;SDS011;5304;48.604;2.096;2023-07-28T12:59:40;0.90;;;0.90;;
10511;SDS011;5304;48.604;2.096;2023-07-28T13:02:24;1.05;;;0.90;;
10511;SDS011;5304;48.604;2.096;2023-07-28T13:05:09;2.20;;;1.15;;
10511;SDS011;5304;48.604;2.096;2023-07-28T13:07:55;1.52;;;1.00;;
10511;SDS011;5304;48.604;2.096;2023-07-28T13:10:39;2.15;;;1.10;;
10511;SDS011;5304;48.604;2.096;2023-07-28T13:13:23;1.05;;;1.05;;
10511;SDS011;5304;48.604;2.096;2023-07-28T13:16:08;2.80;;;1.20;;
10511;SDS011;5304;48.604;2.096;2023-07-28T13:18:52;2.05;;;1.30;;
10511;SDS011;5304;48.604;2.096;2023-07-28T13:21:37;3.10;;;1.40;;
10511;SDS011;5304;48.604;2.096;2023-07-28T13:24:21;1.45;;;1.23;;
10511;SDS011;5304;48.604;2.096;2023-07-28T13:27:05;1.27;;;1.17;;
10511;SDS011;5304;48.604;2.096;2023-07-28T13:29:49;1.92;;;1.08;;
10511;SDS011;5304;48.604;2.096;2023-07-28T13:32:34;1.92;;;1.00;;
10511;SDS011;5304;48.604;2.096;2023-07-28T13:35:18;2.38;;;1.20;;
10511;SDS011;5304;48.604;2.096;2023-07-28T13:38:03;1.48;;;1.17;;
10511;SDS011;5304;48.604;2.096;2023-07-28T13:40:47;1.20;;;1.10;;
10511;SDS011;5304;48.604;2.096;2023-07-28T13:43:34;1.73;;;1.08;;
10511;SDS011;5304;48.604;2.096;2023-07-28T13:46:20;1.60;;;1.05;;
10511;SDS011;5304;48.604;2.096;2023-07-28T13:49:05;1.30;;;1.20;;
10511;SDS011;5304;48.604;2.096;2023-07-28T13:51:49;1.23;;;1.15;;
10511;SDS011;5304;48.604;2.096;2023-07-28T13:54:34;3.00;;;1.20;;
10511;SDS011;5304;48.604;2.096;2023-07-28T13:57:18;1.40;;;1.30;;
10511;SDS011;5304;48.604;2.096;2023-07-28T14:00:03;2.22;;;1.13;;
10511;SDS011;5304;48.604;2.096;2023-07-28T14:02:50;1.52;;;1.20;;
10511;SDS011;5304;48.604;2.096;2023-07-28T14:05:34;0.90;;;0.90;;
10511;SDS011;5304;48.604;2.096;2023-07-28T14:08:18;1.38;;;1.10;;
10511;SDS011;5304;48.604;2.096;2023-07-28T14:11:02;0.90;;;0.90;;
10511;SDS011;5304;48.604;2.096;2023-07-28T14:13:47;1.08;;;0.90;;
10511;SDS011;5304;48.604;2.096;2023-07-28T14:16:31;2.15;;;1.00;;
10511;SDS011;5304;48.604;2.096;2023-07-28T14:19:16;2.15;;;0.90;;
10511;SDS011;5304;48.604;2.096;2023-07-28T14:22:00;4.00;;;0.95;;
10511;SDS011;5304;48.604;2.096;2023-07-28T14:24:45;1.52;;;1.27;;
10511;SDS011;5304;48.604;2.096;2023-07-28T14:27:30;1.67;;;1.10;;
10511;SDS011;5304;48.604;2.096;2023-07-28T14:30:14;3.40;;;1.20;;
10511;SDS011;5304;48.604;2.096;2023-07-28T14:32:58;1.35;;;1.13;;
10511;SDS011;5304;48.604;2.096;2023-07-28T14:35:45;1.92;;;1.15;;
10511;SDS011;5304;48.604;2.096;2023-07-28T14:38:31;2.47;;;1.30;;
10511;SDS011;5304;48.604;2.096;2023-07-28T14:41:15;1.80;;;1.27;;
10511;SDS011;5304;48.604;2.096;2023-07-28T14:44:00;2.38;;;1.42;;
10511;SDS011;5304;48.604;2.096;2023-07-28T14:46:44;1.85;;;1.30;;
10511;SDS011;5304;48.604;2.096;2023-07-28T14:49:30;1.75;;;1.20;;
10511;SDS011;5304;48.604;2.096;2023-07-28T14:52:14;6.15;;;1.50;;
10511;SDS011;5304;48.604;2.096;2023-07-28T14:54:58;1.90;;;1.10;;
10511;SDS011;5304;48.604;2.096;2023-07-28T14:57:43;1.67;;;1.27;;
10511;SDS011;5304;48.604;2.096;2023-07-28T15:00:27;1.20;;;1.10;;
10511;SDS011;5304;48.604;2.096;2023-07-28T15:03:12;2.08;;;1.10;;
10511;SDS011;5304;48.604;2.096;2023-07-28T15:05:56;1.58;;;1.13;;
10511;SDS011;5304;48.604;2.096;2023-07-28T15:08:40;1.20;;;1.10;;
10511;SDS011;5304;48.604;2.096;2023-07-28T15:11:25;1.23;;;1.10;;
10511;SDS011;5304;48.604;2.096;2023-07-28T15:14:09;2.03;;;1.20;;
10511;SDS011;5304;48.604;2.096;2023-07-28T15:16:55;5.18;;;1.30;;
10511;SDS011;5304;48.604;2.096;2023-07-28T15:19:39;3.05;;;1.40;;
10511;SDS011;5304;48.604;2.096;2023-07-28T15:22:24;3.63;;;1.17;;
10511;SDS011;5304;48.604;2.096;2023-07-28T15:25:08;1.20;;;1.10;;
10511;SDS011;5304;48.604;2.096;2023-07-28T15:27:52;1.15;;;1.02;;
10511;SDS011;5304;48.604;2.096;2023-07-28T15:30:37;1.00;;;1.00;;
10511;SDS011;5304;48.604;2.096;2023-07-28T15:33:21;2.65;;;1.20;;
10511;SDS011;5304;48.604;2.096;2023-07-28T15:36:15;1.10;;;1.08;;
10511;SDS011;5304;48.604;2.096;2023-07-28T15:38:59;1.65;;;1.17;;
10511;SDS011;5304;48.604;2.096;2023-07-28T15:41:43;1.00;;;1.00;;
10511;SDS011;5304;48.604;2.096;2023-07-28T15:44:28;1.15;;;1.00;;
10511;SDS011;5304;48.604;2.096;2023-07-28T15:47:12;1.10;;;1.00;;
10511;SDS011;5304;48.604;2.096;2023-07-28T15:49:56;1.08;;;0.70;;
10511;SDS011;5304;48.604;2.096;2023-07-28T15:52:41;1.58;;;1.35;;
10511;SDS011;5304;48.604;2.096;2023-07-28T15:55:25;1.05;;;0.75;;
10511;SDS011;5304;48.604;2.096;2023-07-28T15:58:09;1.20;;;1.02;;
10511;SDS011;5304;48.604;2.096;2023-07-28T16:00:54;0.80;;;0.80;;
10511;SDS011;5304;48.604;2.096;2023-07-28T16:03:38;1.08;;;0.90;;
10511;SDS011;5304;48.604;2.096;2023-07-28T16:06:23;2.45;;;0.90;;
10511;SDS011;5304;48.604;2.096;2023-07-28T16:09:07;0.98;;;0.90;;
10511;SDS011;5304;48.604;2.096;2023-07-28T16:11:51;0.82;;;0.82;;
10511;SDS011;5304;48.604;2.096;2023-07-28T16:14:36;0.90;;;0.80;;
10511;SDS011;5304;48.604;2.096;2023-07-28T16:17:21;1.85;;;1.10;;
10511;SDS011;5304;48.604;2.096;2023-07-28T16:20:06;1.15;;;1.05;;
10511;SDS011;5304;48.604;2.096;2023-07-28T16:22:51;0.88;;;0.80;;
10511;SDS011;5304;48.604;2.096;2023-07-28T16:25:35;1.13;;;0.95;;
10511;SDS011;5304;48.604;2.096;2023-07-28T16:28:20;2.65;;;1.00;;
10511;SDS011;5304;48.604;2.096;2023-07-28T16:31:04;4.50;;;1.10;;
10511;SDS011;5304;48.604;2.096;2023-07-28T16:33:48;5.72;;;2.95;;
10511;SDS011;5304;48.604;2.096;2023-07-28T16:36:32;1.20;;;1.10;;
10511;SDS011;5304;48.604;2.096;2023-07-28T16:39:16;1.20;;;1.10;;
10511;SDS011;5304;48.604;2.096;2023-07-28T16:42:02;2.58;;;1.08;;
10511;SDS011;5304;48.604;2.096;2023-07-28T16:44:47;1.08;;;1.00;;
10511;SDS011;5304;48.604;2.096;2023-07-28T16:47:31;1.17;;;1.10;;
10511;SDS011;5304;48.604;2.096;2023-07-28T16:50:20;1.83;;;1.20;;
10511;SDS011;5304;48.604;2.096;2023-07-28T16:53:04;1.83;;;1.15;;
10511;SDS011;5304;48.604;2.096;2023-07-28T16:55:49;2.88;;;1.27;;
10511;SDS011;5304;48.604;2.096;2023-07-28T16:58:33;2.33;;;1.20;;
10511;SDS011;5304;48.604;2.096;2023-07-28T17:01:17;2.05;;;1.10;;
10511;SDS011;5304;48.604;2.096;2023-07-28T17:04:04;1.27;;;1.17;;
10511;SDS011;5304;48.604;2.096;2023-07-28T17:06:48;1.95;;;1.50;;
10511;SDS011;5304;48.604;2.096;2023-07-28T17:09:32;1.33;;;1.20;;
10511;SDS011;5304;48.604;2.096;2023-07-28T17:12:16;4.18;;;1.30;;
10511;SDS011;5304;48.604;2.096;2023-07-28T17:15:01;1.55;;;1.30;;
10511;SDS011;5304;48.604;2.096;2023-07-28T17:17:46;3.15;;;1.50;;
10511;SDS011;5304;48.604;2.096;2023-07-28T17:20:30;1.40;;;1.30;;
10511;SDS011;5304;48.604;2.096;2023-07-28T17:23:15;1.70;;;1.60;;
10511;SDS011;5304;48.604;2.096;2023-07-28T17:25:59;2.25;;;1.25;;
10511;SDS011;5304;48.604;2.096;2023-07-28T17:28:45;2.33;;;1.35;;
10511;SDS011;5304;48.604;2.096;2023-07-28T17:31:29;1.27;;;1.10;;
10511;SDS011;5304;48.604;2.096;2023-07-28T17:34:14;1.38;;;1.27;;
10511;SDS011;5304;48.604;2.096;2023-07-28T17:36:59;2.22;;;1.27;;
10511;SDS011;5304;48.604;2.096;2023-07-28T17:39:43;1.30;;;1.15;;
10511;SDS011;5304;48.604;2.096;2023-07-28T17:42:27;1.48;;;1.30;;
10511;SDS011;5304;48.604;2.096;2023-07-28T17:45:13;2.58;;;1.20;;
10511;SDS011;5304;48.604;2.096;2023-07-28T17:47:57;3.00;;;1.30;;
10511;SDS011;5304;48.604;2.096;2023-07-28T17:50:42;1.27;;;1.17;;
10511;SDS011;5304;48.604;2.096;2023-07-28T17:53:26;1.20;;;1.10;;
10511;SDS011;5304;48.604;2.096;2023-07-28T17:56:10;1.58;;;1.33;;
10511;SDS011;5304;48.604;2.096;2023-07-28T17:58:57;1.48;;;1.23;;
10511;SDS011;5304;48.604;2.096;2023-07-28T18:01:41;1.45;;;1.35;;
10511;SDS011;5304;48.604;2.096;2023-07-28T18:04:25;1.20;;;1.10;;
10511;SDS011;5304;48.604;2.096;2023-07-28T18:07:10;1.50;;;1.40;;
10511;SDS011;5304;48.604;2.096;2023-07-28T18:09:54;3.72;;;1.45;;
10511;SDS011;5304;48.604;2.096;2023-07-28T18:12:39;1.73;;;1.38;;
10511;SDS011;5304;48.604;2.096;2023-07-28T18:15:23;2.08;;;1.50;;
10511;SDS011;5304;48.604;2.096;2023-07-28T18:18:07;1.50;;;1.40;;
10511;SDS011;5304;48.604;2.096;2023-07-28T18:20:51;1.30;;;1.20;;
10511;SDS011;5304;48.604;2.096;2023-07-28T18:23:36;2.78;;;1.52;;
10511;SDS011;5304;48.604;2.096;2023-07-28T18:26:20;1.60;;;1.42;;
10511;SDS011;5304;48.604;2.096;2023-07-28T18:29:04;2.15;;;1.48;;
10511;SDS011;5304;48.604;2.096;2023-07-28T18:31:48;1.98;;;1.50;;
10511;SDS011;5304;48.604;2.096;2023-07-28T18:34:32;1.58;;;1.48;;
10511;SDS011;5304;48.604;2.096;2023-07-28T18:37:17;2.85;;;1.38;;
10511;SDS011;5304;48.604;2.096;2023-07-28T18:40:01;3.70;;;1.52;;
10511;SDS011;5304;48.604;2.096;2023-07-28T18:42:46;2.78;;;1.48;;
10511;SDS011;5304;48.604;2.096;2023-07-28T18:45:30;1.60;;;1.30;;
10511;SDS011;5304;48.604;2.096;2023-07-28T18:48:14;2.53;;;1.20;;
10511;SDS011;5304;48.604;2.096;2023-07-28T18:51:03;2.85;;;1.83;;
10511;SDS011;5304;48.604;2.096;2023-07-28T18:53:47;3.75;;;3.10;;
10511;SDS011;5304;48.604;2.096;2023-07-28T18:56:34;3.45;;;2.67;;
10511;SDS011;5304;48.604;2.096;2023-07-28T18:59:19;4.05;;;2.20;;
10511;SDS011;5304;48.604;2.096;2023-07-28T19:02:03;1.92;;;1.70;;
10511;SDS011;5304;48.604;2.096;2023-07-28T19:04:49;1.85;;;1.60;;
10511;SDS011;5304;48.604;2.096;2023-07-28T19:07:33;2.20;;;1.80;;
10511;SDS011;5304;48.604;2.096;2023-07-28T19:10:18;3.20;;;1.48;;
10511;SDS011;5304;48.604;2.096;2023-07-28T19:13:02;5.60;;;1.92;;
10511;SDS011;5304;48.604;2.096;2023-07-28T19:15:46;3.42;;;1.80;;
10511;SDS011;5304;48.604;2.096;2023-07-28T19:18:31;1.55;;;1.45;;
10511;SDS011;5304;48.604;2.096;2023-07-28T19:21:15;1.90;;;1.70;;
10511;SDS011;5304;48.604;2.096;2023-07-28T19:24:00;2.30;;;1.60;;
10511;SDS011;5304;48.604;2.096;2023-07-28T19:26:44;2.17;;;1.40;;
10511;SDS011;5304;48.604;2.096;2023-07-28T19:29:28;1.58;;;1.40;;
10511;SDS011;5304;48.604;2.096;2023-07-28T19:32:13;2.30;;;1.58;;
10511;SDS011;5304;48.604;2.096;2023-07-28T19:34:57;2.55;;;1.40;;
10511;SDS011;5304;48.604;2.096;2023-07-28T19:37:41;2.08;;;1.63;;
10511;SDS011;5304;48.604;2.096;2023-07-28T19:40:27;1.58;;;1.35;;
10511;SDS011;5304;48.604;2.096;2023-07-28T19:43:12;3.58;;;1.50;;
10511;SDS011;5304;48.604;2.096;2023-07-28T19:45:56;2.03;;;1.25;;
10511;SDS011;5304;48.604;2.096;2023-07-28T19:48:40;1.75;;;1.50;;
10511;SDS011;5304;48.604;2.096;2023-07-28T19:51:25;2.00;;;1.70;;
10511;SDS011;5304;48.604;2.096;2023-07-28T19:54:09;2.22;;;1.50;;
10511;SDS011;5304;48.604;2.096;2023-07-28T19:56:53;2.35;;;1.73;;
10511;SDS011;5304;48.604;2.096;2023-07-28T19:59:38;3.28;;;1.48;;
10511;SDS011;5304;48.604;2.096;2023-07-28T20:02:22;1.58;;;1.38;;
10511;SDS011;5304;48.604;2.096;2023-07-28T20:05:06;2.42;;;1.40;;
10511;SDS011;5304;48.604;2.096;2023-07-28T20:07:51;3.03;;;1.50;;
10511;SDS011;5304;48.604;2.096;2023-07-28T20:10:35;3.40;;;1.40;;
10511;SDS011;5304;48.604;2.096;2023-07-28T20:13:19;1.60;;;1.50;;
10511;SDS011;5304;48.604;2.096;2023-07-28T20:16:04;1.95;;;1.50;;
10511;SDS011;5304;48.604;2.096;2023-07-28T20:18:49;3.08;;;1.50;;
10511;SDS011;5304;48.604;2.096;2023-07-28T20:21:33;2.15;;;1.60;;
10511;SDS011;5304;48.604;2.096;2023-07-28T20:24:18;3.78;;;1.42;;
10511;SDS011;5304;48.604;2.096;2023-07-28T20:27:02;2.58;;;1.73;;
10511;SDS011;5304;48.604;2.096;2023-07-28T20:29:50;2.13;;;1.80;;
10511;SDS011;5304;48.604;2.096;2023-07-28T20:32:34;3.92;;;2.10;;
10511;SDS011;5304;48.604;2.096;2023-07-28T20:35:18;6.00;;;1.85;;
10511;SDS011;5304;48.604;2.096;2023-07-28T20:38:03;2.70;;;1.67;;
10511;SDS011;5304;48.604;2.096;2023-07-28T20:40:47;3.53;;;1.65;;
10511;SDS011;5304;48.604;2.096;2023-07-28T20:43:31;2.15;;;1.60;;
10511;SDS011;5304;48.604;2.096;2023-07-28T20:46:15;5.32;;;1.67;;
